Time;durP1;ratioP1;P1;durP2;ratioP2;P2;SDS_P1;SDS_P2;PMS_P1;PMS_P2;Temp;Humidity;BMP_temperature;BMP_pressure;BME280_temperature;BME280_humidity;BME280_pressure;Samples;Min_cycle;Max_cycle;Signal;HPM_P1;HPM_P2
2023/09/30 00:02:12;;;;;;;5.95;2.72;;;18.00;95.60;;;;;;4890716;29;20025;-77
2023/09/30 00:04:38;;;;;;;6.53;2.65;;;17.90;95.60;;;;;;4890967;29;20036;-76
2023/09/30 00:07:05;;;;;;;6.78;2.60;;;17.90;95.80;;;;;;4874972;29;20032;-76
2023/09/30 00:09:31;;;;;;;8.55;2.22;;;18.00;95.70;;;;;;4859339;29;20025;-77
2023/09/30 00:11:57;;;;;;;7.20;2.90;;;18.00;95.80;;;;;;4874664;29;20256;-76
2023/09/30 00:14:22;;;;;;;7.63;2.45;;;17.80;95.90;;;;;;4891279;29;20089;-76
2023/09/30 00:16:48;;;;;;;6.45;2.45;;;17.70;96.10;;;;;;4891101;29;20246;-76
2023/09/30 00:19:14;;;;;;;6.30;2.60;;;17.60;96.30;;;;;;4874876;29;20037;-76
2023/09/30 00:21:40;;;;;;;6.75;2.53;;;17.50;96.60;;;;;;4891066;29;20037;-76
2023/09/30 00:24:05;;;;;;;7.28;2.80;;;17.40;96.80;;;;;;4891200;29;20029;-76
2023/09/30 00:26:31;;;;;;;7.13;2.75;;;17.40;97.10;;;;;;4891115;29;20041;-74
2023/09/30 00:28:57;;;;;;;6.25;2.65;;;17.30;97.40;;;;;;4891278;29;20044;-76
2023/09/30 06:55:34;;;;;;;7.93;3.30;;;17.20;99.90;;;;;;5434464;23;20057;-77
2023/09/30 06:58:01;;;;;;;7.28;3.55;;;17.30;99.90;;;;;;4906786;29;20083;-77
2023/09/30 07:00:27;;;;;;;7.22;2.95;;;17.30;99.90;;;;;;4907296;29;20381;-75
2023/09/30 07:02:52;;;;;;;8.98;3.47;;;17.20;99.90;;;;;;4907329;29;20031;-76
2023/09/30 07:05:19;;;;;;;8.48;3.88;;;17.30;99.90;;;;;;4907645;29;20039;-75
2023/09/30 07:07:45;;;;;;;6.20;3.70;;;17.30;99.90;;;;;;4907417;29;20056;-75
2023/09/30 07:10:11;;;;;;;7.57;3.20;;;17.20;99.90;;;;;;4890541;29;20080;-77
2023/09/30 07:12:37;;;;;;;9.55;3.05;;;17.40;99.90;;;;;;4872193;29;20096;-76
2023/09/30 07:15:06;;;;;;;8.93;3.42;;;17.60;99.90;;;;;;4904684;29;20307;-77
2023/09/30 07:17:33;;;;;;;8.60;3.50;;;17.70;99.90;;;;;;4907645;29;20020;-75
2023/09/30 07:19:59;;;;;;;7.63;3.10;;;17.70;99.90;;;;;;4890123;29;20029;-76
2023/09/30 07:22:25;;;;;;;7.07;3.40;;;17.80;99.90;;;;;;4899756;29;20120;-76
2023/09/30 07:24:51;;;;;;;7.40;3.30;;;17.80;99.90;;;;;;4895097;29;20160;-76
2023/09/30 07:27:16;;;;;;;4.47;2.50;;;17.80;99.90;;;;;;4909668;29;20044;-76
2023/09/30 07:29:43;;;;;;;6.20;2.95;;;17.90;99.90;;;;;;4902021;29;20032;-76
2023/09/30 07:32:09;;;;;;;7.40;3.58;;;17.90;99.90;;;;;;4910790;29;20067;-75
2023/09/30 07:34:35;;;;;;;7.00;3.40;;;17.80;99.90;;;;;;4896254;29;20036;-76
2023/09/30 07:37:01;;;;;;;9.45;3.50;;;17.70;99.90;;;;;;4910383;29;20032;-76
2023/09/30 07:39:26;;;;;;;8.52;3.92;;;17.60;99.90;;;;;;4893219;29;20349;-76
2023/09/30 07:41:52;;;;;;;8.82;3.40;;;17.50;99.90;;;;;;4910407;29;20024;-75
2023/09/30 07:44:18;;;;;;;7.82;3.50;;;17.50;99.90;;;;;;4909810;29;20066;-75
2023/09/30 07:46:43;;;;;;;8.18;3.88;;;17.40;99.90;;;;;;4910328;29;20025;-75
2023/09/30 07:49:10;;;;;;;6.18;2.88;;;17.50;99.90;;;;;;4910146;29;20037;-74
2023/09/30 07:51:36;;;;;;;7.88;3.63;;;17.50;99.90;;;;;;4910486;29;20040;-75
2023/09/30 07:54:04;;;;;;;8.80;3.60;;;17.60;99.90;;;;;;4910317;29;20209;-76
2023/09/30 07:56:29;;;;;;;9.60;4.15;;;17.50;99.90;;;;;;4897015;29;20052;-76
2023/09/30 07:58:55;;;;;;;7.70;3.60;;;17.50;99.90;;;;;;4890664;29;20029;-75
2023/09/30 08:01:21;;;;;;;8.30;4.03;;;17.60;99.90;;;;;;4890463;29;20031;-75
2023/09/30 08:03:47;;;;;;;8.85;3.60;;;17.70;99.90;;;;;;4891465;29;20041;-74
2023/09/30 08:06:13;;;;;;;8.85;3.60;;;17.70;99.90;;;;;;4891199;29;20048;-74
2023/09/30 08:08:39;;;;;;;10.23;3.45;;;17.80;99.90;;;;;;4891304;29;20032;-75
2023/09/30 08:11:05;;;;;;;8.02;3.50;;;17.90;99.90;;;;;;4891038;29;20036;-75
2023/09/30 08:13:32;;;;;;;8.60;3.67;;;18.00;99.90;;;;;;4891418;29;20085;-75
2023/09/30 08:15:59;;;;;;;6.90;3.28;;;18.10;99.90;;;;;;4889989;29;20483;-75
2023/09/30 08:18:24;;;;;;;7.80;3.20;;;18.20;99.80;;;;;;4901045;29;20311;-75
2023/09/30 08:20:50;;;;;;;8.77;3.45;;;18.30;99.80;;;;;;4909744;29;20041;-76
2023/09/30 08:23:16;;;;;;;9.15;3.80;;;18.50;99.60;;;;;;4909407;29;20294;-74
2023/09/30 08:25:42;;;;;;;7.82;3.95;;;18.50;98.90;;;;;;4909810;29;20028;-73
2023/09/30 08:28:09;;;;;;;8.88;3.10;;;18.60;98.70;;;;;;4900807;29;20126;-74
2023/09/30 08:30:35;;;;;;;6.85;2.78;;;18.80;98.40;;;;;;4890955;29;20231;-74
2023/09/30 08:33:03;;;;;;;8.38;3.83;;;19.00;97.50;;;;;;4890515;29;20117;-74
2023/09/30 08:35:30;;;;;;;9.35;4.07;;;19.00;97.80;;;;;;4897221;29;20029;-73
2023/09/30 08:37:55;;;;;;;10.27;3.78;;;19.10;97.40;;;;;;4897533;29;20088;-73
2023/09/30 08:40:21;;;;;;;7.88;4.03;;;19.20;97.10;;;;;;4893720;29;20085;-74
2023/09/30 08:42:52;;;;;;;8.32;3.05;;;19.10;96.60;;;;;;4874321;29;20339;-75
2023/09/30 08:45:18;;;;;;;7.18;3.20;;;19.10;96.90;;;;;;4890597;29;20052;-74
2023/09/30 08:47:44;;;;;;;10.35;3.90;;;19.20;97.20;;;;;;4890824;29;20037;-74
2023/09/30 08:50:10;;;;;;;8.70;3.47;;;19.30;97.50;;;;;;4890429;29;20310;-75
2023/09/30 08:52:40;;;;;;;12.10;4.35;;;19.40;97.10;;;;;;4905492;29;20158;-75
2023/09/30 08:55:09;;;;;;;6.32;3.20;;;19.50;96.60;;;;;;4908937;29;20099;-74
2023/09/30 08:57:42;;;;;;;8.18;3.92;;;19.60;96.20;;;;;;4909381;29;20080;-75
2023/09/30 09:00:13;;;;;;;6.45;3.10;;;19.70;95.60;;;;;;4909099;29;20266;-75
2023/09/30 09:02:39;;;;;;;8.80;3.42;;;19.70;95.60;;;;;;4905839;29;20037;-74
2023/09/30 09:05:06;;;;;;;6.63;3.40;;;19.70;95.50;;;;;;4873522;29;20141;-74
2023/09/30 09:07:33;;;;;;;10.00;4.05;;;19.70;95.00;;;;;;4890522;29;20033;-74
2023/09/30 09:10:09;;;;;;;8.55;3.92;;;19.70;95.20;;;;;;4889860;29;20029;-76
2023/09/30 09:12:37;;;;;;;7.60;3.53;;;19.90;94.70;;;;;;4890647;29;20033;-74
2023/09/30 09:15:06;;;;;;;7.40;3.28;;;19.90;94.30;;;;;;4889992;29;20232;-75
2023/09/30 09:17:43;;;;;;;8.18;4.18;;;20.00;94.10;;;;;;4890031;29;20206;-74
2023/09/30 09:20:20;;;;;;;9.52;4.00;;;20.00;93.90;;;;;;4889456;29;20045;-75
2023/09/30 09:22:47;;;;;;;5.72;3.08;;;19.90;93.60;;;;;;4890243;29;20315;-75
2023/09/30 09:25:13;;;;;;;9.63;4.22;;;20.00;93.50;;;;;;4889517;29;20040;-76
2023/09/30 09:27:39;;;;;;;7.53;3.30;;;20.10;93.60;;;;;;4891156;29;20044;-75
2023/09/30 09:30:22;;;;;;;9.48;3.80;;;20.20;93.00;;;;;;4890149;29;20029;-75
2023/09/30 09:33:05;;;;;;;6.60;3.30;;;20.20;92.90;;;;;;4890664;29;20071;-73
2023/09/30 09:35:35;;;;;;;7.15;3.20;;;20.30;92.70;;;;;;4897556;29;20101;-74
2023/09/30 09:38:08;;;;;;;7.07;3.55;;;20.50;92.60;;;;;;4878113;29;20200;-73
2023/09/30 09:40:35;;;;;;;10.02;3.50;;;20.70;92.40;;;;;;4892344;29;20260;-74
2023/09/30 09:43:04;;;;;;;6.22;3.17;;;20.80;91.70;;;;;;4888932;29;20081;-74
2023/09/30 09:45:36;;;;;;;6.18;3.17;;;21.00;91.50;;;;;;4889482;29;20119;-74
2023/09/30 09:48:04;;;;;;;7.82;3.70;;;20.80;90.80;;;;;;4872385;29;20056;-74
2023/09/30 09:50:32;;;;;;;6.25;3.15;;;20.80;91.50;;;;;;4870719;29;20029;-73
2023/09/30 09:53:00;;;;;;;6.60;3.00;;;21.00;90.60;;;;;;4871166;29;20029;-74
2023/09/30 09:55:27;;;;;;;5.32;2.95;;;21.20;90.80;;;;;;4870510;29;20053;-73
2023/09/30 09:57:54;;;;;;;7.65;3.28;;;21.30;90.20;;;;;;4870887;29;20048;-74
2023/09/30 10:00:25;;;;;;;7.28;2.80;;;21.40;89.30;;;;;;4854028;29;20029;-73
2023/09/30 10:02:51;;;;;;;8.40;3.10;;;21.80;89.20;;;;;;4876009;29;20092;-74
2023/09/30 10:05:20;;;;;;;6.55;2.65;;;22.00;87.70;;;;;;4889151;29;20099;-74
2023/09/30 10:07:57;;;;;;;12.15;3.80;;;22.10;86.30;;;;;;4889863;29;20024;-75
2023/09/30 10:10:24;;;;;;;5.72;2.80;;;22.40;86.40;;;;;;4889205;29;20041;-76
2023/09/30 10:12:50;;;;;;;8.35;3.03;;;22.70;84.50;;;;;;4888640;29;20041;-76
2023/09/30 10:15:25;;;;;;;10.30;3.45;;;22.90;83.10;;;;;;4888796;29;20307;-73
2023/09/30 10:18:04;;;;;;;8.15;3.05;;;23.10;82.20;;;;;;4888522;29;20044;-76
2023/09/30 10:20:32;;;;;;;6.57;2.58;;;23.10;82.40;;;;;;4889445;29;20043;-74
2023/09/30 10:23:33;;;;;;;5.45;2.83;;;23.50;81.90;;;;;;4889519;29;20077;-75
2023/09/30 10:26:13;;;;;;;6.43;3.42;;;23.80;81.00;;;;;;4889272;29;20050;-76
2023/09/30 10:28:48;;;;;;;6.55;3.33;;;24.10;78.40;;;;;;4889455;29;20041;-75
2023/09/30 10:31:17;;;;;;;6.35;2.95;;;24.00;78.60;;;;;;4888947;29;20037;-79
2023/09/30 10:34:04;;;;;;;8.98;3.90;;;24.00;77.90;;;;;;4889358;29;20036;-74
2023/09/30 10:36:34;;;;;;;6.68;3.30;;;23.80;78.30;;;;;;4888551;29;20033;-75
2023/09/30 10:39:00;;;;;;;7.53;3.63;;;23.50;78.60;;;;;;4888002;29;20448;-76
2023/09/30 10:41:47;;;;;;;7.78;3.83;;;23.40;78.60;;;;;;4888578;29;20345;-75
2023/09/30 10:44:31;;;;;;;7.72;3.35;;;23.10;79.20;;;;;;4880544;29;20246;-76
2023/09/30 10:47:20;;;;;;;7.63;3.55;;;23.10;80.30;;;;;;4888840;29;20375;-76
2023/09/30 10:49:46;;;;;;;7.30;3.47;;;23.00;79.80;;;;;;4887934;29;20112;-75
2023/09/30 10:52:23;;;;;;;10.13;3.58;;;22.80;80.10;;;;;;4887259;29;20029;-74
2023/09/30 10:54:49;;;;;;;8.38;3.40;;;22.60;82.00;;;;;;4877273;29;20104;-75
2023/09/30 10:57:27;;;;;;;8.98;3.83;;;22.60;80.70;;;;;;4881739;29;20062;-76
2023/09/30 11:00:14;;;;;;;8.73;3.33;;;22.50;81.90;;;;;;4874414;29;20096;-75
2023/09/30 11:02:51;;;;;;;8.25;3.40;;;22.60;81.50;;;;;;4873117;29;20033;-75
2023/09/30 11:05:18;;;;;;;8.57;3.80;;;23.00;81.00;;;;;;4873598;29;20053;-74
2023/09/30 11:07:47;;;;;;;8.30;3.63;;;23.30;80.10;;;;;;4873991;29;20100;-75
2023/09/30 11:10:16;;;;;;;8.23;3.85;;;23.30;79.80;;;;;;4884742;29;20024;-76
2023/09/30 11:12:54;;;;;;;8.88;3.50;;;23.10;80.00;;;;;;4892419;29;20096;-74
2023/09/30 11:15:20;;;;;;;7.15;3.30;;;22.90;80.00;;;;;;4878138;29;20036;-76
2023/09/30 11:17:45;;;;;;;7.60;3.55;;;22.80;80.60;;;;;;4907759;29;20071;-76
2023/09/30 11:20:11;;;;;;;9.02;3.63;;;23.70;79.20;;;;;;4891736;29;20065;-75
2023/09/30 11:22:39;;;;;;;7.75;3.28;;;24.30;76.90;;;;;;4892383;29;20240;-75
2023/09/30 11:25:05;;;;;;;7.30;3.38;;;25.60;74.10;;;;;;4892165;29;20049;-74
2023/09/30 11:27:31;;;;;;;8.43;3.58;;;26.60;70.10;;;;;;4892481;29;20028;-75
2023/09/30 11:29:58;;;;;;;7.78;3.70;;;27.70;66.80;;;;;;4892579;29;20175;-74
2023/09/30 11:32:28;;;;;;;7.28;3.50;;;28.50;66.20;;;;;;4891864;29;20037;-75
2023/09/30 11:34:54;;;;;;;7.18;3.45;;;29.40;64.10;;;;;;4898461;29;20067;-76
2023/09/30 11:37:23;;;;;;;6.22;3.40;;;30.10;62.70;;;;;;4907684;29;20033;-76
2023/09/30 11:39:50;;;;;;;8.85;3.75;;;30.60;61.70;;;;;;4873537;29;20033;-75
2023/09/30 11:42:20;;;;;;;6.93;3.40;;;31.00;60.10;;;;;;4873043;29;20120;-76
2023/09/30 11:44:47;;;;;;;8.13;3.70;;;31.20;59.20;;;;;;4873388;29;20084;-75
2023/09/30 11:47:14;;;;;;;7.63;3.53;;;30.70;59.40;;;;;;4883442;29;20374;-75
2023/09/30 11:49:44;;;;;;;8.23;3.70;;;30.90;58.80;;;;;;4891989;29;20434;-74
2023/09/30 11:52:15;;;;;;;7.47;3.97;;;31.60;58.30;;;;;;4891667;29;20198;-75
2023/09/30 11:54:43;;;;;;;7.45;3.80;;;32.20;56.10;;;;;;4891748;29;20033;-74
2023/09/30 11:57:17;;;;;;;8.27;3.58;;;31.00;57.10;;;;;;4891259;29;20099;-75
2023/09/30 11:59:45;;;;;;;8.70;3.72;;;30.20;58.60;;;;;;4892088;29;20039;-75
2023/09/30 12:02:11;;;;;;;;;;;29.60;58.90;;;;;;4891597;29;20382;-75
2023/09/30 12:04:37;;;;;;;7.57;4.30;;;28.90;58.90;;;;;;4891739;29;19935;-73
2023/09/30 12:07:03;;;;;;;7.93;3.85;;;28.10;59.70;;;;;;4891012;29;20048;-75
2023/09/30 12:09:30;;;;;;;8.18;4.30;;;27.10;60.80;;;;;;4891510;29;20090;-74
2023/09/30 12:12:00;;;;;;;6.88;3.88;;;26.60;62.40;;;;;;4891666;29;20215;-76
2023/09/30 12:14:25;;;;;;;8.80;4.13;;;26.00;63.10;;;;;;4891270;29;20044;-74
2023/09/30 12:16:51;;;;;;;7.97;3.70;;;25.80;64.10;;;;;;4891473;29;20037;-75
2023/09/30 12:19:18;;;;;;;7.85;3.35;;;25.70;64.90;;;;;;4890964;29;20093;-75
2023/09/30 12:21:46;;;;;;;7.53;3.65;;;25.90;65.50;;;;;;4891669;29;20072;-76
2023/09/30 12:24:16;;;;;;;;;;;25.90;65.30;;;;;;4891556;29;20052;-76
2023/09/30 12:26:48;;;;;;;9.07;4.10;;;25.90;66.10;;;;;;4874773;29;20094;-74
2023/09/30 12:29:21;;;;;;;8.43;3.67;;;26.00;66.40;;;;;;4890679;29;20260;-75
2023/09/30 12:31:52;;;;;;;7.13;3.70;;;26.30;65.70;;;;;;4891410;29;20040;-76
2023/09/30 12:34:17;;;;;;;8.95;4.38;;;26.40;65.50;;;;;;4890793;29;20100;-74
2023/09/30 12:36:44;;;;;;;7.07;3.72;;;26.70;65.00;;;;;;4874618;29;20033;-74
2023/09/30 12:39:16;;;;;;;7.95;3.80;;;26.70;64.90;;;;;;4890860;29;20502;-74
2023/09/30 12:41:43;;;;;;;8.27;3.83;;;27.10;64.00;;;;;;4890997;29;20112;-74
2023/09/30 12:44:10;;;;;;;9.73;4.22;;;27.10;64.30;;;;;;4874611;29;20218;-74
2023/09/30 12:46:36;;;;;;;8.02;3.80;;;28.20;62.00;;;;;;4890877;29;20032;-75
2023/09/30 12:49:06;;;;;;;7.25;3.40;;;28.70;60.40;;;;;;4896671;29;20089;-74
2023/09/30 12:51:33;;;;;;;9.70;4.28;;;30.00;58.70;;;;;;4899531;29;20033;-75
2023/09/30 12:54:00;;;;;;;6.40;3.05;;;30.90;57.20;;;;;;4890661;29;20306;-75
2023/09/30 12:56:25;;;;;;;6.90;3.70;;;31.50;56.20;;;;;;4909348;29;20382;-74
2023/09/30 12:58:51;;;;;;;8.20;4.18;;;32.20;54.80;;;;;;4909596;29;20043;-74
2023/09/30 13:01:21;;;;;;;7.43;4.15;;;32.90;54.50;;;;;;4908835;29;20139;-75
2023/09/30 13:03:47;;;;;;;7.38;3.90;;;33.70;52.50;;;;;;4909045;29;20043;-74
2023/09/30 13:06:13;;;;;;;8.27;3.92;;;33.50;52.20;;;;;;4908762;29;20032;-74
2023/09/30 13:08:39;;;;;;;8.68;4.28;;;33.90;51.30;;;;;;4909687;29;20132;-75
2023/09/30 13:11:04;;;;;;;8.88;4.13;;;34.10;51.60;;;;;;4909202;29;20040;-75
2023/09/30 13:13:33;;;;;;;7.35;4.15;;;33.40;52.20;;;;;;4908967;29;20049;-75
2023/09/30 13:16:05;;;;;;;8.45;4.20;;;31.90;52.90;;;;;;4909331;29;20333;-74
2023/09/30 13:18:32;;;;;;;9.45;4.60;;;30.70;54.00;;;;;;4907868;29;20032;-74
2023/09/30 13:20:58;;;;;;;9.45;4.15;;;29.30;56.00;;;;;;4892205;29;20051;-75
2023/09/30 13:23:24;;;;;;;8.55;4.43;;;28.70;57.00;;;;;;4908751;29;20025;-74
2023/09/30 13:25:50;;;;;;;9.05;4.10;;;28.20;57.60;;;;;;4908930;29;20056;-74
2023/09/30 13:28:16;;;;;;;8.02;3.97;;;28.30;57.30;;;;;;4908655;29;20337;-73
2023/09/30 13:30:42;;;;;;;7.95;3.60;;;29.40;56.60;;;;;;4909210;29;20023;-75
2023/09/30 13:33:07;;;;;;;8.10;4.15;;;30.40;56.40;;;;;;4908749;29;20020;-76
2023/09/30 13:35:36;;;;;;;7.60;3.63;;;31.30;55.70;;;;;;4908720;29;20032;-75
2023/09/30 13:38:01;;;;;;;6.72;3.83;;;32.00;54.90;;;;;;4908838;29;20020;-75
2023/09/30 13:40:27;;;;;;;7.00;3.47;;;33.10;53.70;;;;;;4891773;29;20063;-76
2023/09/30 13:42:53;;;;;;;7.05;3.80;;;34.10;51.90;;;;;;4908632;29;20028;-75
2023/09/30 13:45:19;;;;;;;7.07;4.00;;;34.30;51.40;;;;;;4908616;29;20044;-76
2023/09/30 13:47:44;;;;;;;8.23;3.97;;;33.30;52.10;;;;;;4894060;29;20033;-76
2023/09/30 13:50:10;;;;;;;7.10;3.72;;;32.20;53.50;;;;;;4890021;29;20029;-75
2023/09/30 13:52:36;;;;;;;5.95;3.60;;;32.00;53.80;;;;;;4888482;29;20025;-75
2023/09/30 13:55:03;;;;;;;7.70;3.60;;;32.50;53.60;;;;;;4889605;29;20137;-75
2023/09/30 13:57:29;;;;;;;8.23;3.78;;;32.10;53.40;;;;;;4889084;29;20109;-75
2023/09/30 13:59:56;;;;;;;7.93;4.57;;;31.10;54.90;;;;;;4889901;29;20025;-74
2023/09/30 14:02:23;;;;;;;7.38;4.10;;;29.70;56.70;;;;;;4889485;29;20029;-74
2023/09/30 14:04:49;;;;;;;8.32;4.20;;;28.40;58.30;;;;;;4891010;29;20052;-74
2023/09/30 14:07:18;;;;;;;9.43;4.47;;;27.90;60.50;;;;;;4890544;29;20049;-75
2023/09/30 14:09:44;;;;;;;;;;;27.40;60.90;;;;;;4890590;29;20044;-74
2023/09/30 14:12:10;;;;;;;9.57;4.10;;;27.10;61.20;;;;;;4889757;29;19914;-75
2023/09/30 14:14:35;;;;;;;9.20;4.38;;;26.40;62.20;;;;;;4889139;29;20259;-75
2023/09/30 14:17:07;;;;;;;9.57;4.20;;;26.50;62.00;;;;;;4889385;29;20033;-75
2023/09/30 14:19:34;;;;;;;8.52;3.88;;;26.80;61.60;;;;;;4888953;29;20044;-75
2023/09/30 14:22:00;;;;;;;8.63;3.90;;;27.00;62.10;;;;;;4889600;29;20065;-74
2023/09/30 14:24:26;;;;;;;7.05;3.55;;;27.80;60.70;;;;;;4888433;29;20037;-74
2023/09/30 14:26:52;;;;;;;9.70;4.57;;;28.30;58.70;;;;;;4887772;29;20089;-74
2023/09/30 14:29:17;;;;;;;8.70;4.47;;;29.20;57.80;;;;;;4872903;29;20025;-74
2023/09/30 14:31:43;;;;;;;8.15;3.85;;;30.00;57.20;;;;;;4870799;29;20077;-74
2023/09/30 14:34:09;;;;;;;8.52;3.90;;;30.40;56.40;;;;;;4870482;29;20048;-75
2023/09/30 14:36:35;;;;;;;7.57;3.70;;;30.30;56.60;;;;;;4869967;29;20085;-76
2023/09/30 14:39:00;;;;;;;8.13;3.70;;;29.90;56.50;;;;;;4870588;29;20081;-75
2023/09/30 14:41:26;;;;;;;7.68;3.83;;;29.80;57.00;;;;;;4870271;29;20237;-75
2023/09/30 14:43:52;;;;;;;8.70;4.13;;;29.70;56.60;;;;;;4878671;29;20029;-75
2023/09/30 14:46:17;;;;;;;9.10;4.13;;;29.50;57.20;;;;;;4888898;29;20032;-76
2023/09/30 14:48:43;;;;;;;9.55;4.20;;;29.30;57.30;;;;;;4888941;29;20037;-74
2023/09/30 14:51:09;;;;;;;7.07;3.83;;;29.00;57.90;;;;;;4889133;29;20021;-74
2023/09/30 14:53:38;;;;;;;7.45;3.85;;;28.80;58.10;;;;;;4888200;29;20055;-74
2023/09/30 14:56:14;;;;;;;10.10;4.50;;;28.50;58.60;;;;;;4889004;29;20055;-74
2023/09/30 14:58:39;;;;;;;10.10;4.32;;;28.50;58.40;;;;;;4884512;29;20029;-75
2023/09/30 15:01:08;;;;;;;9.18;4.40;;;28.40;58.40;;;;;;4885140;29;20145;-73
2023/09/30 15:03:37;;;;;;;8.55;3.53;;;28.60;58.20;;;;;;4881329;29;20331;-75
2023/09/30 15:06:04;;;;;;;9.00;4.00;;;29.10;57.30;;;;;;4889011;29;20037;-74
2023/09/30 15:08:33;;;;;;;7.97;3.65;;;29.30;56.90;;;;;;4888051;29;20104;-76
2023/09/30 15:11:00;;;;;;;12.10;4.60;;;29.60;56.70;;;;;;4888730;29;20025;-74
2023/09/30 15:13:26;;;;;;;7.15;4.07;;;29.50;56.60;;;;;;4888357;29;20024;-74
2023/09/30 15:15:51;;;;;;;9.68;4.32;;;29.10;56.80;;;;;;4888899;29;20270;-73
2023/09/30 15:18:17;;;;;;;7.47;4.07;;;28.90;57.10;;;;;;4888592;29;20036;-75
2023/09/30 15:20:47;;;;;;;8.07;4.00;;;28.30;58.20;;;;;;4888123;29;20033;-74
2023/09/30 15:23:13;;;;;;;7.47;3.40;;;27.70;58.60;;;;;;4888779;29;20036;-75
2023/09/30 15:25:45;;;;;;;8.60;3.88;;;27.10;59.70;;;;;;4888029;29;20033;-75
2023/09/30 15:28:11;;;;;;;8.40;4.53;;;26.50;60.60;;;;;;4888479;29;20021;-75
2023/09/30 15:30:38;;;;;;;8.68;4.47;;;25.90;62.30;;;;;;4888200;29;20072;-74
2023/09/30 15:33:04;;;;;;;9.68;4.32;;;25.90;62.60;;;;;;4888771;29;20069;-75
2023/09/30 15:35:30;;;;;;;10.30;4.10;;;25.80;62.50;;;;;;4888519;29;20041;-75
2023/09/30 15:37:56;;;;;;;8.93;3.80;;;25.50;63.50;;;;;;4872162;29;20060;-76
2023/09/30 15:40:26;;;;;;;9.93;4.63;;;25.20;63.80;;;;;;4888591;29;20017;-75
2023/09/30 15:42:52;;;;;;;8.10;4.05;;;25.10;63.50;;;;;;4891162;29;20021;-75
2023/09/30 15:45:18;;;;;;;9.57;4.60;;;25.00;64.00;;;;;;4875594;29;20041;-74
2023/09/30 15:47:44;;;;;;;9.35;4.15;;;24.90;64.30;;;;;;4874816;29;20032;-75
2023/09/30 15:50:10;;;;;;;9.50;4.18;;;24.90;64.40;;;;;;4892215;29;20240;-76
2023/09/30 15:52:37;;;;;;;8.23;3.92;;;24.80;65.00;;;;;;4891261;29;20222;-76
2023/09/30 15:55:03;;;;;;;7.80;4.38;;;24.80;65.00;;;;;;4891429;29;20033;-74
2023/09/30 15:57:29;;;;;;;9.70;4.93;;;25.10;63.90;;;;;;4891225;29;20260;-74
2023/09/30 15:59:55;;;;;;;10.77;4.60;;;25.70;63.20;;;;;;4891786;29;20033;-75
2023/09/30 16:02:20;;;;;;;9.52;4.30;;;26.10;62.50;;;;;;4891643;29;20033;-76
2023/09/30 16:04:46;;;;;;;9.57;4.65;;;26.40;62.30;;;;;;4891145;29;20110;-74
2023/09/30 16:07:12;;;;;;;8.90;4.20;;;26.60;61.30;;;;;;4891855;29;20037;-75
2023/09/30 16:09:37;;;;;;;9.77;4.80;;;26.80;61.40;;;;;;4891365;29;20307;-76
2023/09/30 16:12:04;;;;;;;8.93;3.95;;;27.00;61.20;;;;;;4891469;29;20029;-74
2023/09/30 16:14:30;;;;;;;9.65;4.72;;;26.80;60.50;;;;;;4891235;29;20045;-75
2023/09/30 16:16:56;;;;;;;10.05;4.88;;;26.60;60.90;;;;;;4887411;29;20024;-79
2023/09/30 16:19:22;;;;;;;9.05;4.47;;;26.40;61.40;;;;;;4891264;29;20214;-75
2023/09/30 16:21:48;;;;;;;11.32;4.72;;;26.00;62.00;;;;;;4889975;29;20040;-75
2023/09/30 16:24:14;;;;;;;8.80;4.53;;;25.40;62.80;;;;;;4891529;29;20080;-76
2023/09/30 16:26:40;;;;;;;10.38;4.93;;;25.00;64.10;;;;;;4890927;29;20060;-76
2023/09/30 16:29:06;;;;;;;8.55;4.28;;;24.60;64.80;;;;;;4891177;29;20226;-76
2023/09/30 16:31:32;;;;;;;9.80;4.68;;;24.20;65.90;;;;;;4886323;29;20037;-77
2023/09/30 16:33:59;;;;;;;11.80;5.18;;;23.90;66.40;;;;;;4891273;29;20056;-76
2023/09/30 16:36:25;;;;;;;10.07;4.47;;;23.60;67.30;;;;;;4874251;29;20035;-76
2023/09/30 16:38:51;;;;;;;9.00;4.35;;;23.20;67.90;;;;;;4885599;29;20033;-75
2023/09/30 16:41:17;;;;;;;9.00;4.53;;;22.90;68.70;;;;;;4881019;29;20029;-77
2023/09/30 16:43:43;;;;;;;9.18;4.93;;;22.70;69.00;;;;;;4871622;29;20033;-76
2023/09/30 16:46:09;;;;;;;9.80;4.90;;;22.50;69.80;;;;;;4874173;29;20220;-76
2023/09/30 16:48:34;;;;;;;10.38;4.72;;;22.20;70.80;;;;;;4873834;29;20032;-76
2023/09/30 16:51:00;;;;;;;11.30;4.68;;;22.00;71.20;;;;;;4873977;29;20335;-75
2023/09/30 16:53:29;;;;;;;11.15;4.80;;;21.70;71.90;;;;;;4889159;29;20248;-76
2023/09/30 16:55:55;;;;;;;10.27;5.05;;;21.50;72.30;;;;;;4890400;29;20379;-76
2023/09/30 16:58:21;;;;;;;13.80;5.68;;;21.30;73.00;;;;;;4890780;29;20045;-75
2023/09/30 17:00:49;;;;;;;11.23;5.50;;;21.10;73.80;;;;;;4890162;29;20025;-76
2023/09/30 17:03:15;;;;;;;;;;;20.90;74.00;;;;;;4891033;29;20219;-75
2023/09/30 17:05:42;;;;;;;13.30;5.80;;;20.80;74.50;;;;;;4890262;29;19951;-76
2023/09/30 17:08:11;;;;;;;13.32;6.18;;;20.60;74.90;;;;;;4874606;29;20021;-75
2023/09/30 17:10:37;;;;;;;10.18;5.57;;;20.50;75.60;;;;;;4889955;29;20040;-75
2023/09/30 17:13:03;;;;;;;10.32;5.72;;;20.40;76.20;;;;;;4890342;29;20093;-75
2023/09/30 17:15:29;;;;;;;11.13;5.78;;;20.40;76.50;;;;;;4890294;29;20088;-75
2023/09/30 17:17:56;;;;;;;12.88;6.32;;;20.40;76.50;;;;;;4890556;29;20029;-74
2023/09/30 17:20:22;;;;;;;11.75;5.72;;;20.20;76.80;;;;;;4873644;29;20036;-76
2023/09/30 17:22:49;;;;;;;11.73;6.03;;;20.20;77.40;;;;;;4872926;29;20088;-76
2023/09/30 17:25:15;;;;;;;14.48;5.68;;;20.00;77.60;;;;;;4873809;29;20135;-75
2023/09/30 17:27:41;;;;;;;12.00;6.00;;;19.90;78.00;;;;;;4889867;29;20041;-74
2023/09/30 17:30:08;;;;;;;13.88;6.32;;;19.90;78.20;;;;;;4890373;29;20243;-75
2023/09/30 17:32:34;;;;;;;13.45;6.10;;;19.70;78.70;;;;;;4888566;29;20044;-76
2023/09/30 17:34:59;;;;;;;18.10;6.88;;;19.70;79.10;;;;;;4871563;29;20242;-75
2023/09/30 17:37:26;;;;;;;13.30;6.57;;;19.50;80.00;;;;;;4871597;29;20089;-76
2023/09/30 17:39:51;;;;;;;15.05;6.93;;;19.50;79.80;;;;;;4871077;29;20038;-75
2023/09/30 17:42:19;;;;;;;13.98;6.22;;;19.40;80.40;;;;;;4871650;29;20037;-76
2023/09/30 17:44:45;;;;;;;12.70;6.33;;;19.30;80.50;;;;;;4871204;29;20428;-75
2023/09/30 17:47:11;;;;;;;13.20;7.05;;;19.20;80.70;;;;;;4871475;29;20029;-76
2023/09/30 17:49:38;;;;;;;13.68;6.47;;;19.20;80.90;;;;;;4870880;29;20086;-75
2023/09/30 17:52:03;;;;;;;13.27;6.18;;;19.10;81.30;;;;;;4871310;29;20017;-75
2023/09/30 17:54:29;;;;;;;16.95;6.93;;;19.00;81.60;;;;;;4887612;29;20017;-76
2023/09/30 17:56:55;;;;;;;13.05;6.70;;;19.00;82.00;;;;;;4890108;29;20083;-77
2023/09/30 17:59:21;;;;;;;13.20;6.65;;;18.90;82.20;;;;;;4889534;29;20029;-75
2023/09/30 18:01:46;;;;;;;12.35;6.18;;;18.80;82.50;;;;;;4889373;29;20044;-75
2023/09/30 18:04:13;;;;;;;15.00;6.43;;;18.80;82.80;;;;;;4888186;29;20251;-76
2023/09/30 18:06:38;;;;;;;13.00;6.25;;;18.70;83.00;;;;;;4891622;29;20027;-76
2023/09/30 18:09:07;;;;;;;15.35;6.40;;;18.70;83.40;;;;;;4905987;29;20306;-75
2023/09/30 18:11:34;;;;;;;12.95;6.90;;;18.60;83.80;;;;;;4898173;29;20037;-76
2023/09/30 18:13:59;;;;;;;14.25;6.57;;;18.60;84.20;;;;;;4888476;29;20073;-76
2023/09/30 18:16:25;;;;;;;13.52;6.80;;;18.40;84.60;;;;;;4889499;29;20029;-76
2023/09/30 18:18:51;;;;;;;15.30;7.75;;;18.30;85.10;;;;;;4884930;29;20036;-75
2023/09/30 18:21:16;;;;;;;14.32;6.65;;;18.20;85.50;;;;;;4884122;29;20322;-75
2023/09/30 18:23:42;;;;;;;12.40;6.22;;;18.20;85.40;;;;;;4879529;29;20371;-77
2023/09/30 18:26:08;;;;;;;15.27;7.72;;;18.10;85.60;;;;;;4870877;29;20044;-76
2023/09/30 18:28:34;;;;;;;12.88;6.50;;;18.10;86.20;;;;;;4870399;29;20026;-76
2023/09/30 18:31:00;;;;;;;16.55;7.72;;;18.00;86.50;;;;;;4878606;29;20040;-76
2023/09/30 18:33:26;;;;;;;15.55;7.57;;;17.90;87.10;;;;;;4878362;29;20029;-75
2023/09/30 18:35:53;;;;;;;15.25;7.85;;;17.80;86.50;;;;;;4882340;29;20021;-75
2023/09/30 18:38:19;;;;;;;17.15;8.25;;;17.80;86.80;;;;;;4899103;29;20108;-75
2023/09/30 18:40:45;;;;;;;13.82;8.02;;;17.80;86.90;;;;;;4890623;29;20036;-76
2023/09/30 18:43:13;;;;;;;19.23;8.93;;;17.70;87.10;;;;;;4889417;29;20020;-76
2023/09/30 18:45:43;;;;;;;15.67;8.83;;;17.70;87.80;;;;;;4888402;29;20056;-75
2023/09/30 18:48:12;;;;;;;16.33;8.18;;;17.70;87.90;;;;;;4889289;29;20379;-75
2023/09/30 18:50:43;;;;;;;16.10;7.15;;;17.60;88.90;;;;;;4872559;29;20089;-75
2023/09/30 18:53:09;;;;;;;14.35;7.20;;;17.50;89.20;;;;;;4888860;29;20029;-76
2023/09/30 18:55:40;;;;;;;14.60;7.35;;;17.40;89.50;;;;;;4888533;29;20057;-77
2023/09/30 18:58:06;;;;;;;15.55;7.20;;;17.30;90.00;;;;;;4884922;29;20043;-76
2023/09/30 19:00:33;;;;;;;11.95;6.25;;;17.20;89.40;;;;;;4888516;29;20255;-76
2023/09/30 19:03:00;;;;;;;15.05;7.10;;;17.20;90.00;;;;;;4889094;29;20029;-76
2023/09/30 19:05:26;;;;;;;12.18;6.00;;;17.20;90.40;;;;;;4889081;29;20063;-76
2023/09/30 19:07:51;;;;;;;14.38;6.88;;;17.00;90.30;;;;;;4887384;29;20057;-76
2023/09/30 19:10:17;;;;;;;14.95;6.60;;;16.90;90.60;;;;;;4888563;29;20218;-75
2023/09/30 19:12:43;;;;;;;13.18;6.88;;;16.90;90.50;;;;;;4888526;29;20177;-75